sensor_id;sensor_type;location;lat;lon;timestamp;P1;durP1;ratioP1;P2;durP2;ratioP2
55300;SDS011;58302;51.446;-2.000;2023-11-19T00:00:53;22.00;;;5.57;;
55300;SDS011;58302;51.446;-2.000;2023-11-19T00:03:19;21.85;;;6.07;;
55300;SDS011;58302;51.446;-2.000;2023-11-19T00:05:45;22.38;;;5.32;;
55300;SDS011;58302;51.446;-2.000;2023-11-19T00:08:12;17.45;;;4.88;;
55300;SDS011;58302;51.446;-2.000;2023-11-19T00:10:38;20.70;;;5.75;;
55300;SDS011;58302;51.446;-2.000;2023-11-19T00:13:04;15.15;;;4.40;;
55300;SDS011;58302;51.446;-2.000;2023-11-19T00:15:30;21.85;;;6.05;;
55300;SDS011;58302;51.446;-2.000;2023-11-19T00:17:56;15.75;;;5.43;;
55300;SDS011;58302;51.446;-2.000;2023-11-19T00:20:22;15.20;;;5.47;;
55300;SDS011;58302;51.446;-2.000;2023-11-19T00:22:48;20.13;;;6.13;;
55300;SDS011;58302;51.446;-2.000;2023-11-19T00:25:16;16.60;;;4.13;;
55300;SDS011;58302;51.446;-2.000;2023-11-19T00:27:43;15.73;;;5.88;;
55300;SDS011;58302;51.446;-2.000;2023-11-19T00:30:12;13.23;;;4.10;;
55300;SDS011;58302;51.446;-2.000;2023-11-19T00:32:39;16.15;;;5.40;;
55300;SDS011;58302;51.446;-2.000;2023-11-19T00:35:06;16.77;;;4.95;;
55300;SDS011;58302;51.446;-2.000;2023-11-19T00:37:33;20.05;;;4.95;;
55300;SDS011;58302;51.446;-2.000;2023-11-19T00:39:59;26.98;;;5.97;;
55300;SDS011;58302;51.446;-2.000;2023-11-19T00:42:25;22.60;;;5.32;;
55300;SDS011;58302;51.446;-2.000;2023-11-19T00:44:52;21.30;;;6.55;;
55300;SDS011;58302;51.446;-2.000;2023-11-19T00:47:18;22.35;;;5.88;;
55300;SDS011;58302;51.446;-2.000;2023-11-19T00:49:47;22.00;;;5.75;;
55300;SDS011;58302;51.446;-2.000;2023-11-19T00:52:17;21.67;;;5.60;;
55300;SDS011;58302;51.446;-2.000;2023-11-19T00:54:43;21.52;;;5.65;;
55300;SDS011;58302;51.446;-2.000;2023-11-19T00:57:09;22.80;;;6.22;;
55300;SDS011;58302;51.446;-2.000;2023-11-19T00:59:35;20.52;;;5.90;;
55300;SDS011;58302;51.446;-2.000;2023-11-19T01:02:01;22.58;;;5.00;;
55300;SDS011;58302;51.446;-2.000;2023-11-19T01:04:35;24.58;;;5.18;;
55300;SDS011;58302;51.446;-2.000;2023-11-19T01:07:02;18.73;;;5.55;;
55300;SDS011;58302;51.446;-2.000;2023-11-19T01:09:32;30.88;;;6.90;;
55300;SDS011;58302;51.446;-2.000;2023-11-19T01:12:00;21.80;;;5.85;;
55300;SDS011;58302;51.446;-2.000;2023-11-19T01:14:27;18.13;;;5.18;;
55300;SDS011;58302;51.446;-2.000;2023-11-19T01:16:54;26.45;;;5.90;;
55300;SDS011;58302;51.446;-2.000;2023-11-19T01:19:23;20.60;;;6.50;;
55300;SDS011;58302;51.446;-2.000;2023-11-19T01:21:50;27.30;;;5.55;;
55300;SDS011;58302;51.446;-2.000;2023-11-19T01:24:16;18.95;;;5.35;;
55300;SDS011;58302;51.446;-2.000;2023-11-19T01:26:43;16.50;;;4.43;;
55300;SDS011;58302;51.446;-2.000;2023-11-19T01:29:13;19.42;;;5.50;;
55300;SDS011;58302;51.446;-2.000;2023-11-19T01:31:42;25.15;;;4.90;;
55300;SDS011;58302;51.446;-2.000;2023-11-19T01:34:10;19.17;;;4.53;;
55300;SDS011;58302;51.446;-2.000;2023-11-19T01:36:37;16.98;;;5.15;;
55300;SDS011;58302;51.446;-2.000;2023-11-19T01:39:03;19.77;;;5.22;;
55300;SDS011;58302;51.446;-2.000;2023-11-19T01:41:35;18.42;;;4.65;;
55300;SDS011;58302;51.446;-2.000;2023-11-19T01:44:02;23.88;;;5.10;;
55300;SDS011;58302;51.446;-2.000;2023-11-19T01:46:30;19.90;;;4.85;;
55300;SDS011;58302;51.446;-2.000;2023-11-19T01:49:00;12.80;;;4.20;;
55300;SDS011;58302;51.446;-2.000;2023-11-19T01:51:28;16.55;;;4.28;;
55300;SDS011;58302;51.446;-2.000;2023-11-19T01:53:54;31.88;;;5.45;;
55300;SDS011;58302;51.446;-2.000;2023-11-19T01:56:22;18.02;;;4.60;;
55300;SDS011;58302;51.446;-2.000;2023-11-19T01:58:48;16.30;;;4.55;;
55300;SDS011;58302;51.446;-2.000;2023-11-19T02:01:15;15.10;;;5.38;;
55300;SDS011;58302;51.446;-2.000;2023-11-19T02:03:41;16.20;;;4.40;;
55300;SDS011;58302;51.446;-2.000;2023-11-19T02:06:08;21.30;;;5.57;;
55300;SDS011;58302;51.446;-2.000;2023-11-19T02:08:36;26.23;;;5.80;;
55300;SDS011;58302;51.446;-2.000;2023-11-19T02:11:04;17.92;;;4.82;;
55300;SDS011;58302;51.446;-2.000;2023-11-19T02:13:32;19.13;;;5.28;;
55300;SDS011;58302;51.446;-2.000;2023-11-19T02:15:58;17.33;;;4.95;;
55300;SDS011;58302;51.446;-2.000;2023-11-19T02:18:25;17.08;;;5.10;;
55300;SDS011;58302;51.446;-2.000;2023-11-19T02:20:55;17.08;;;4.85;;
55300;SDS011;58302;51.446;-2.000;2023-11-19T02:23:23;19.95;;;5.55;;
55300;SDS011;58302;51.446;-2.000;2023-11-19T02:25:55;15.10;;;4.70;;
55300;SDS011;58302;51.446;-2.000;2023-11-19T02:28:35;19.15;;;3.70;;
55300;SDS011;58302;51.446;-2.000;2023-11-19T02:31:02;13.13;;;4.20;;
55300;SDS011;58302;51.446;-2.000;2023-11-19T02:33:30;12.25;;;4.18;;
55300;SDS011;58302;51.446;-2.000;2023-11-19T02:35:56;13.82;;;4.30;;
55300;SDS011;58302;51.446;-2.000;2023-11-19T02:38:26;14.55;;;4.55;;
55300;SDS011;58302;51.446;-2.000;2023-11-19T02:40:54;20.77;;;5.47;;
55300;SDS011;58302;51.446;-2.000;2023-11-19T02:43:20;20.02;;;4.75;;
55300;SDS011;58302;51.446;-2.000;2023-11-19T02:45:46;18.35;;;3.90;;
55300;SDS011;58302;51.446;-2.000;2023-11-19T02:48:12;19.60;;;4.53;;
55300;SDS011;58302;51.446;-2.000;2023-11-19T02:50:42;13.13;;;5.80;;
55300;SDS011;58302;51.446;-2.000;2023-11-19T02:53:10;25.55;;;6.45;;
55300;SDS011;58302;51.446;-2.000;2023-11-19T02:55:36;17.33;;;4.43;;
55300;SDS011;58302;51.446;-2.000;2023-11-19T02:58:05;15.10;;;4.50;;
55300;SDS011;58302;51.446;-2.000;2023-11-19T03:00:39;14.68;;;4.35;;
55300;SDS011;58302;51.446;-2.000;2023-11-19T03:03:13;8.52;;;4.10;;
55300;SDS011;58302;51.446;-2.000;2023-11-19T03:05:48;9.77;;;3.53;;
55300;SDS011;58302;51.446;-2.000;2023-11-19T03:08:17;13.73;;;4.55;;
55300;SDS011;58302;51.446;-2.000;2023-11-19T03:10:43;17.52;;;4.47;;
55300;SDS011;58302;51.446;-2.000;2023-11-19T03:13:11;22.15;;;5.35;;
55300;SDS011;58302;51.446;-2.000;2023-11-19T03:15:41;15.10;;;3.70;;
55300;SDS011;58302;51.446;-2.000;2023-11-19T03:18:08;15.93;;;4.53;;
55300;SDS011;58302;51.446;-2.000;2023-11-19T03:20:42;16.25;;;4.13;;
55300;SDS011;58302;51.446;-2.000;2023-11-19T03:25:34;11.15;;;3.72;;
55300;SDS011;58302;51.446;-2.000;2023-11-19T03:30:32;15.98;;;5.43;;
55300;SDS011;58302;51.446;-2.000;2023-11-19T03:32:59;17.27;;;5.13;;
55300;SDS011;58302;51.446;-2.000;2023-11-19T03:35:28;10.48;;;4.28;;
55300;SDS011;58302;51.446;-2.000;2023-11-19T03:37:56;16.17;;;4.53;;
55300;SDS011;58302;51.446;-2.000;2023-11-19T03:40:21;14.90;;;3.97;;
55300;SDS011;58302;51.446;-2.000;2023-11-19T03:42:48;14.55;;;4.43;;
55300;SDS011;58302;51.446;-2.000;2023-11-19T03:45:14;16.10;;;5.68;;
55300;SDS011;58302;51.446;-2.000;2023-11-19T03:47:42;14.57;;;4.32;;
55300;SDS011;58302;51.446;-2.000;2023-11-19T03:50:08;14.43;;;3.45;;
55300;SDS011;58302;51.446;-2.000;2023-11-19T03:52:35;16.70;;;4.70;;
55300;SDS011;58302;51.446;-2.000;2023-11-19T03:55:01;16.23;;;4.10;;
55300;SDS011;58302;51.446;-2.000;2023-11-19T03:57:30;18.40;;;5.10;;
55300;SDS011;58302;51.446;-2.000;2023-11-19T04:00:02;25.73;;;4.60;;
55300;SDS011;58302;51.446;-2.000;2023-11-19T04:02:40;15.77;;;4.35;;
55300;SDS011;58302;51.446;-2.000;2023-11-19T04:05:07;16.40;;;4.60;;
55300;SDS011;58302;51.446;-2.000;2023-11-19T04:07:33;20.40;;;5.03;;
55300;SDS011;58302;51.446;-2.000;2023-11-19T04:09:59;12.95;;;4.45;;
55300;SDS011;58302;51.446;-2.000;2023-11-19T04:12:25;17.13;;;4.40;;
55300;SDS011;58302;51.446;-2.000;2023-11-19T04:14:51;19.00;;;4.38;;
55300;SDS011;58302;51.446;-2.000;2023-11-19T04:17:17;17.40;;;5.78;;
55300;SDS011;58302;51.446;-2.000;2023-11-19T04:22:13;15.10;;;3.83;;
55300;SDS011;58302;51.446;-2.000;2023-11-19T04:24:39;13.63;;;4.68;;
55300;SDS011;58302;51.446;-2.000;2023-11-19T04:27:07;11.35;;;5.13;;
55300;SDS011;58302;51.446;-2.000;2023-11-19T04:29:33;19.23;;;6.82;;
55300;SDS011;58302;51.446;-2.000;2023-11-19T04:34:31;13.60;;;2.75;;
55300;SDS011;58302;51.446;-2.000;2023-11-19T04:36:58;6.88;;;2.88;;
55300;SDS011;58302;51.446;-2.000;2023-11-19T04:41:58;5.38;;;3.05;;
55300;SDS011;58302;51.446;-2.000;2023-11-19T04:44:28;19.73;;;4.13;;
55300;SDS011;58302;51.446;-2.000;2023-11-19T04:46:57;10.88;;;3.95;;
55300;SDS011;58302;51.446;-2.000;2023-11-19T04:49:26;9.80;;;3.47;;
55300;SDS011;58302;51.446;-2.000;2023-11-19T04:51:52;15.82;;;3.67;;
55300;SDS011;58302;51.446;-2.000;2023-11-19T04:56:52;8.90;;;2.97;;
55300;SDS011;58302;51.446;-2.000;2023-11-19T04:59:18;13.48;;;3.08;;
55300;SDS011;58302;51.446;-2.000;2023-11-19T05:01:51;12.10;;;3.28;;
55300;SDS011;58302;51.446;-2.000;2023-11-19T05:04:17;14.18;;;3.88;;
55300;SDS011;58302;51.446;-2.000;2023-11-19T05:06:44;11.07;;;4.15;;
55300;SDS011;58302;51.446;-2.000;2023-11-19T05:09:11;18.80;;;4.32;;
55300;SDS011;58302;51.446;-2.000;2023-11-19T05:11:40;11.00;;;3.20;;
55300;SDS011;58302;51.446;-2.000;2023-11-19T05:14:06;13.80;;;4.35;;
55300;SDS011;58302;51.446;-2.000;2023-11-19T05:16:33;15.18;;;3.88;;
55300;SDS011;58302;51.446;-2.000;2023-11-19T05:19:00;16.88;;;4.82;;
55300;SDS011;58302;51.446;-2.000;2023-11-19T05:21:44;14.77;;;3.70;;
55300;SDS011;58302;51.446;-2.000;2023-11-19T05:24:11;11.60;;;3.10;;
55300;SDS011;58302;51.446;-2.000;2023-11-19T05:26:38;19.25;;;5.03;;
55300;SDS011;58302;51.446;-2.000;2023-11-19T05:29:04;23.77;;;4.78;;
55300;SDS011;58302;51.446;-2.000;2023-11-19T05:31:30;18.95;;;4.18;;
55300;SDS011;58302;51.446;-2.000;2023-11-19T05:33:58;19.92;;;5.72;;
55300;SDS011;58302;51.446;-2.000;2023-11-19T05:36:31;17.88;;;4.93;;
55300;SDS011;58302;51.446;-2.000;2023-11-19T05:38:59;15.38;;;3.40;;
55300;SDS011;58302;51.446;-2.000;2023-11-19T05:41:26;11.05;;;3.88;;
55300;SDS011;58302;51.446;-2.000;2023-11-19T05:43:54;12.45;;;3.15;;
55300;SDS011;58302;51.446;-2.000;2023-11-19T05:46:24;14.52;;;4.63;;
55300;SDS011;58302;51.446;-2.000;2023-11-19T05:48:52;15.95;;;3.03;;
55300;SDS011;58302;51.446;-2.000;2023-11-19T05:51:18;18.98;;;3.97;;
55300;SDS011;58302;51.446;-2.000;2023-11-19T05:53:47;13.10;;;4.10;;
55300;SDS011;58302;51.446;-2.000;2023-11-19T05:56:18;17.20;;;5.15;;
55300;SDS011;58302;51.446;-2.000;2023-11-19T05:58:49;9.18;;;3.53;;
55300;SDS011;58302;51.446;-2.000;2023-11-19T06:01:21;16.48;;;4.10;;
55300;SDS011;58302;51.446;-2.000;2023-11-19T06:03:48;17.50;;;5.53;;
55300;SDS011;58302;51.446;-2.000;2023-11-19T06:08:49;12.70;;;5.05;;
55300;SDS011;58302;51.446;-2.000;2023-11-19T06:11:27;10.48;;;4.15;;
55300;SDS011;58302;51.446;-2.000;2023-11-19T06:14:00;19.15;;;6.03;;
55300;SDS011;58302;51.446;-2.000;2023-11-19T06:16:35;17.80;;;4.93;;
55300;SDS011;58302;51.446;-2.000;2023-11-19T06:21:37;15.00;;;3.35;;
55300;SDS011;58302;51.446;-2.000;2023-11-19T06:24:04;17.95;;;4.93;;
55300;SDS011;58302;51.446;-2.000;2023-11-19T06:29:10;10.90;;;3.53;;
55300;SDS011;58302;51.446;-2.000;2023-11-19T06:31:37;17.42;;;4.18;;
55300;SDS011;58302;51.446;-2.000;2023-11-19T06:34:14;10.10;;;3.25;;
55300;SDS011;58302;51.446;-2.000;2023-11-19T06:41:57;14.65;;;4.05;;
55300;SDS011;58302;51.446;-2.000;2023-11-19T06:44:26;9.60;;;3.50;;
55300;SDS011;58302;51.446;-2.000;2023-11-19T06:46:52;12.18;;;3.58;;
55300;SDS011;58302;51.446;-2.000;2023-11-19T06:49:23;13.13;;;5.15;;
55300;SDS011;58302;51.446;-2.000;2023-11-19T06:51:50;12.38;;;3.95;;
55300;SDS011;58302;51.446;-2.000;2023-11-19T06:54:23;10.15;;;2.13;;
55300;SDS011;58302;51.446;-2.000;2023-11-19T06:59:25;6.50;;;2.33;;
55300;SDS011;58302;51.446;-2.000;2023-11-19T07:01:52;18.63;;;2.35;;
55300;SDS011;58302;51.446;-2.000;2023-11-19T07:04:18;11.88;;;3.20;;
55300;SDS011;58302;51.446;-2.000;2023-11-19T07:09:15;15.32;;;3.53;;
55300;SDS011;58302;51.446;-2.000;2023-11-19T07:11:42;13.57;;;3.53;;
55300;SDS011;58302;51.446;-2.000;2023-11-19T07:14:14;16.70;;;3.58;;
55300;SDS011;58302;51.446;-2.000;2023-11-19T07:16:40;5.78;;;2.58;;
55300;SDS011;58302;51.446;-2.000;2023-11-19T07:19:06;13.10;;;3.65;;
55300;SDS011;58302;51.446;-2.000;2023-11-19T07:21:41;16.30;;;3.42;;
55300;SDS011;58302;51.446;-2.000;2023-11-19T07:24:10;9.30;;;2.92;;
55300;SDS011;58302;51.446;-2.000;2023-11-19T07:29:15;12.88;;;3.50;;
55300;SDS011;58302;51.446;-2.000;2023-11-19T07:31:43;12.20;;;3.10;;
55300;SDS011;58302;51.446;-2.000;2023-11-19T07:34:10;11.30;;;3.90;;
55300;SDS011;58302;51.446;-2.000;2023-11-19T07:36:37;18.75;;;3.85;;
55300;SDS011;58302;51.446;-2.000;2023-11-19T07:39:04;12.20;;;4.05;;
55300;SDS011;58302;51.446;-2.000;2023-11-19T07:41:32;10.48;;;4.30;;
55300;SDS011;58302;51.446;-2.000;2023-11-19T07:49:31;17.30;;;3.83;;
55300;SDS011;58302;51.446;-2.000;2023-11-19T07:51:58;10.40;;;3.47;;
55300;SDS011;58302;51.446;-2.000;2023-11-19T07:54:27;11.32;;;4.45;;
55300;SDS011;58302;51.446;-2.000;2023-11-19T07:57:04;13.52;;;3.97;;
55300;SDS011;58302;51.446;-2.000;2023-11-19T07:59:32;13.55;;;3.72;;
55300;SDS011;58302;51.446;-2.000;2023-11-19T08:01:58;9.43;;;3.33;;
55300;SDS011;58302;51.446;-2.000;2023-11-19T08:04:27;15.52;;;4.10;;
55300;SDS011;58302;51.446;-2.000;2023-11-19T08:09:34;14.45;;;3.10;;
55300;SDS011;58302;51.446;-2.000;2023-11-19T08:12:02;11.13;;;3.95;;
55300;SDS011;58302;51.446;-2.000;2023-11-19T08:14:29;11.57;;;3.72;;
55300;SDS011;58302;51.446;-2.000;2023-11-19T08:16:59;14.70;;;5.22;;
55300;SDS011;58302;51.446;-2.000;2023-11-19T08:19:26;13.75;;;3.90;;
55300;SDS011;58302;51.446;-2.000;2023-11-19T08:21:53;17.88;;;3.67;;
55300;SDS011;58302;51.446;-2.000;2023-11-19T08:24:25;11.63;;;5.65;;
55300;SDS011;58302;51.446;-2.000;2023-11-19T08:26:51;12.50;;;3.88;;
55300;SDS011;58302;51.446;-2.000;2023-11-19T08:29:19;13.80;;;4.25;;
55300;SDS011;58302;51.446;-2.000;2023-11-19T08:34:22;11.75;;;3.45;;
55300;SDS011;58302;51.446;-2.000;2023-11-19T08:36:58;12.88;;;3.15;;
55300;SDS011;58302;51.446;-2.000;2023-11-19T08:39:35;10.00;;;2.65;;
55300;SDS011;58302;51.446;-2.000;2023-11-19T08:42:03;11.40;;;3.10;;
55300;SDS011;58302;51.446;-2.000;2023-11-19T08:44:29;10.25;;;3.50;;
55300;SDS011;58302;51.446;-2.000;2023-11-19T08:46:55;8.73;;;2.95;;
55300;SDS011;58302;51.446;-2.000;2023-11-19T08:49:24;13.77;;;2.78;;
55300;SDS011;58302;51.446;-2.000;2023-11-19T08:51:53;14.35;;;5.10;;
55300;SDS011;58302;51.446;-2.000;2023-11-19T08:54:30;11.63;;;2.50;;
55300;SDS011;58302;51.446;-2.000;2023-11-19T08:56:56;9.63;;;2.85;;
55300;SDS011;58302;51.446;-2.000;2023-11-19T08:59:22;11.55;;;3.22;;
55300;SDS011;58302;51.446;-2.000;2023-11-19T09:02:01;15.48;;;3.63;;
55300;SDS011;58302;51.446;-2.000;2023-11-19T09:04:32;12.90;;;2.97;;
55300;SDS011;58302;51.446;-2.000;2023-11-19T09:07:18;13.35;;;3.65;;
55300;SDS011;58302;51.446;-2.000;2023-11-19T09:09:46;11.63;;;4.10;;
55300;SDS011;58302;51.446;-2.000;2023-11-19T09:12:12;14.93;;;4.15;;
55300;SDS011;58302;51.446;-2.000;2023-11-19T09:14:40;13.50;;;3.92;;
55300;SDS011;58302;51.446;-2.000;2023-11-19T09:17:14;19.08;;;5.18;;
55300;SDS011;58302;51.446;-2.000;2023-11-19T09:19:42;6.63;;;3.03;;
55300;SDS011;58302;51.446;-2.000;2023-11-19T09:22:12;12.48;;;2.75;;
55300;SDS011;58302;51.446;-2.000;2023-11-19T09:24:54;17.30;;;4.50;;
55300;SDS011;58302;51.446;-2.000;2023-11-19T09:27:22;13.15;;;4.45;;
55300;SDS011;58302;51.446;-2.000;2023-11-19T09:29:49;14.02;;;4.57;;
55300;SDS011;58302;51.446;-2.000;2023-11-19T09:32:25;20.60;;;5.38;;
55300;SDS011;58302;51.446;-2.000;2023-11-19T09:34:53;13.38;;;5.93;;
55300;SDS011;58302;51.446;-2.000;2023-11-19T09:37:46;19.13;;;4.68;;
55300;SDS011;58302;51.446;-2.000;2023-11-19T09:40:18;15.35;;;5.22;;
55300;SDS011;58302;51.446;-2.000;2023-11-19T09:42:46;13.43;;;4.13;;
55300;SDS011;58302;51.446;-2.000;2023-11-19T09:51:56;8.80;;;2.97;;
55300;SDS011;58302;51.446;-2.000;2023-11-19T10:02:04;9.55;;;2.90;;
55300;SDS011;58302;51.446;-2.000;2023-11-19T10:04:32;11.25;;;2.22;;
55300;SDS011;58302;51.446;-2.000;2023-11-19T10:10:24;10.55;;;3.00;;
55300;SDS011;58302;51.446;-2.000;2023-11-19T10:12:52;7.72;;;3.15;;
55300;SDS011;58302;51.446;-2.000;2023-11-19T10:15:35;5.30;;;2.25;;
55300;SDS011;58302;51.446;-2.000;2023-11-19T10:21:25;8.77;;;2.80;;
55300;SDS011;58302;51.446;-2.000;2023-11-19T10:27:11;8.55;;;2.65;;
55300;SDS011;58302;51.446;-2.000;2023-11-19T10:29:38;11.15;;;2.72;;
55300;SDS011;58302;51.446;-2.000;2023-11-19T10:38:23;11.93;;;2.58;;
55300;SDS011;58302;51.446;-2.000;2023-11-19T10:40:50;11.30;;;3.45;;
55300;SDS011;58302;51.446;-2.000;2023-11-19T10:43:17;7.50;;;2.05;;
55300;SDS011;58302;51.446;-2.000;2023-11-19T10:45:45;8.70;;;3.20;;
55300;SDS011;58302;51.446;-2.000;2023-11-19T10:50:42;13.32;;;2.83;;
55300;SDS011;58302;51.446;-2.000;2023-11-19T10:53:28;12.25;;;3.22;;
55300;SDS011;58302;51.446;-2.000;2023-11-19T10:58:28;7.32;;;3.03;;
55300;SDS011;58302;51.446;-2.000;2023-11-19T11:01:01;8.20;;;2.45;;
55300;SDS011;58302;51.446;-2.000;2023-11-19T11:03:32;2.85;;;1.38;;
55300;SDS011;58302;51.446;-2.000;2023-11-19T11:06:14;8.43;;;2.33;;
55300;SDS011;58302;51.446;-2.000;2023-11-19T11:08:41;7.78;;;2.13;;
55300;SDS011;58302;51.446;-2.000;2023-11-19T11:13:44;3.92;;;2.00;;
55300;SDS011;58302;51.446;-2.000;2023-11-19T11:18:45;10.10;;;2.10;;
55300;SDS011;58302;51.446;-2.000;2023-11-19T11:21:16;4.82;;;1.50;;
55300;SDS011;58302;51.446;-2.000;2023-11-19T11:27:02;7.20;;;2.22;;
55300;SDS011;58302;51.446;-2.000;2023-11-19T11:32:43;4.40;;;1.17;;
55300;SDS011;58302;51.446;-2.000;2023-11-19T11:38:42;6.10;;;2.35;;
55300;SDS011;58302;51.446;-2.000;2023-11-19T11:41:17;9.27;;;1.88;;
55300;SDS011;58302;51.446;-2.000;2023-11-19T11:43:55;5.05;;;2.20;;
55300;SDS011;58302;51.446;-2.000;2023-11-19T11:51:57;8.05;;;1.77;;
55300;SDS011;58302;51.446;-2.000;2023-11-19T11:57:10;12.75;;;2.35;;
55300;SDS011;58302;51.446;-2.000;2023-11-19T11:59:46;4.60;;;1.55;;
55300;SDS011;58302;51.446;-2.000;2023-11-19T12:02:23;7.55;;;3.10;;
55300;SDS011;58302;51.446;-2.000;2023-11-19T12:04:52;8.65;;;2.10;;
55300;SDS011;58302;51.446;-2.000;2023-11-19T12:07:24;5.75;;;2.78;;
55300;SDS011;58302;51.446;-2.000;2023-11-19T12:10:11;6.40;;;1.90;;
55300;SDS011;58302;51.446;-2.000;2023-11-19T12:12:46;5.85;;;1.95;;
55300;SDS011;58302;51.446;-2.000;2023-11-19T12:15:21;6.35;;;2.83;;
55300;SDS011;58302;51.446;-2.000;2023-11-19T12:20:26;5.60;;;1.92;;
55300;SDS011;58302;51.446;-2.000;2023-11-19T12:25:44;1.42;;;1.33;;
55300;SDS011;58302;51.446;-2.000;2023-11-19T12:28:15;2.08;;;1.38;;
55300;SDS011;58302;51.446;-2.000;2023-11-19T12:30:44;4.65;;;1.33;;
55300;SDS011;58302;51.446;-2.000;2023-11-19T12:33:12;3.60;;;1.13;;
55300;SDS011;58302;51.446;-2.000;2023-11-19T12:35:42;1.67;;;0.90;;
55300;SDS011;58302;51.446;-2.000;2023-11-19T12:38:26;3.78;;;1.10;;
55300;SDS011;58302;51.446;-2.000;2023-11-19T12:43:51;2.47;;;1.15;;
55300;SDS011;58302;51.446;-2.000;2023-11-19T12:46:25;5.85;;;2.15;;
55300;SDS011;58302;51.446;-2.000;2023-11-19T12:49:11;5.03;;;1.20;;
55300;SDS011;58302;51.446;-2.000;2023-11-19T12:54:12;2.40;;;1.00;;
55300;SDS011;58302;51.446;-2.000;2023-11-19T12:59:54;4.70;;;1.33;;
55300;SDS011;58302;51.446;-2.000;2023-11-19T13:02:44;5.20;;;2.00;;
55300;SDS011;58302;51.446;-2.000;2023-11-19T13:08:07;2.83;;;1.35;;
55300;SDS011;58302;51.446;-2.000;2023-11-19T13:10:50;6.82;;;2.05;;
55300;SDS011;58302;51.446;-2.000;2023-11-19T13:16:35;3.80;;;1.40;;
55300;SDS011;58302;51.446;-2.000;2023-11-19T13:19:09;3.40;;;1.05;;
55300;SDS011;58302;51.446;-2.000;2023-11-19T13:21:47;2.80;;;0.90;;
55300;SDS011;58302;51.446;-2.000;2023-11-19T13:24:21;3.28;;;1.33;;
55300;SDS011;58302;51.446;-2.000;2023-11-19T13:27:21;1.02;;;0.60;;
55300;SDS011;58302;51.446;-2.000;2023-11-19T13:29:48;2.95;;;0.75;;
55300;SDS011;58302;51.446;-2.000;2023-11-19T13:32:19;2.33;;;1.48;;
55300;SDS011;58302;51.446;-2.000;2023-11-19T13:34:52;3.60;;;0.90;;
55300;SDS011;58302;51.446;-2.000;2023-11-19T13:40:10;6.78;;;1.48;;
55300;SDS011;58302;51.446;-2.000;2023-11-19T13:42:39;1.52;;;1.40;;
55300;SDS011;58302;51.446;-2.000;2023-11-19T13:47:42;3.05;;;1.38;;
55300;SDS011;58302;51.446;-2.000;2023-11-19T13:50:12;4.32;;;1.15;;
55300;SDS011;58302;51.446;-2.000;2023-11-19T13:56:22;9.05;;;1.98;;
55300;SDS011;58302;51.446;-2.000;2023-11-19T14:29:11;10.98;;;2.40;;
55300;SDS011;58302;51.446;-2.000;2023-11-19T14:31:38;7.57;;;1.85;;
55300;SDS011;58302;51.446;-2.000;2023-11-19T14:34:06;6.97;;;1.52;;
55300;SDS011;58302;51.446;-2.000;2023-11-19T14:36:32;6.72;;;3.17;;
55300;SDS011;58302;51.446;-2.000;2023-11-19T14:38:58;2.80;;;1.55;;
55300;SDS011;58302;51.446;-2.000;2023-11-19T14:41:24;7.82;;;2.75;;
55300;SDS011;58302;51.446;-2.000;2023-11-19T14:43:50;8.18;;;2.70;;
55300;SDS011;58302;51.446;-2.000;2023-11-19T14:46:16;8.68;;;3.45;;
55300;SDS011;58302;51.446;-2.000;2023-11-19T14:48:44;13.60;;;3.30;;
55300;SDS011;58302;51.446;-2.000;2023-11-19T14:51:10;6.10;;;1.95;;
55300;SDS011;58302;51.446;-2.000;2023-11-19T14:53:36;4.25;;;1.90;;
55300;SDS011;58302;51.446;-2.000;2023-11-19T14:56:02;5.85;;;1.77;;
55300;SDS011;58302;51.446;-2.000;2023-11-19T14:58:30;8.70;;;2.75;;
55300;SDS011;58302;51.446;-2.000;2023-11-19T15:00:56;5.72;;;2.20;;
55300;SDS011;58302;51.446;-2.000;2023-11-19T15:03:22;5.15;;;2.08;;
55300;SDS011;58302;51.446;-2.000;2023-11-19T15:05:48;10.50;;;3.92;;
55300;SDS011;58302;51.446;-2.000;2023-11-19T15:08:14;8.23;;;2.67;;
55300;SDS011;58302;51.446;-2.000;2023-11-19T15:10:43;11.27;;;3.50;;
55300;SDS011;58302;51.446;-2.000;2023-11-19T15:13:11;9.13;;;2.35;;
55300;SDS011;58302;51.446;-2.000;2023-11-19T15:15:38;9.15;;;2.95;;
55300;SDS011;58302;51.446;-2.000;2023-11-19T15:18:07;17.95;;;4.60;;
55300;SDS011;58302;51.446;-2.000;2023-11-19T15:20:35;10.48;;;3.92;;
55300;SDS011;58302;51.446;-2.000;2023-11-19T15:23:01;7.28;;;2.70;;
55300;SDS011;58302;51.446;-2.000;2023-11-19T15:25:28;10.90;;;2.95;;
55300;SDS011;58302;51.446;-2.000;2023-11-19T15:27:54;13.32;;;4.63;;
55300;SDS011;58302;51.446;-2.000;2023-11-19T15:30:20;5.22;;;2.72;;
55300;SDS011;58302;51.446;-2.000;2023-11-19T15:32:46;9.52;;;2.78;;
55300;SDS011;58302;51.446;-2.000;2023-11-19T15:35:12;8.57;;;3.28;;
55300;SDS011;58302;51.446;-2.000;2023-11-19T15:37:38;16.33;;;2.67;;
55300;SDS011;58302;51.446;-2.000;2023-11-19T15:40:07;5.95;;;2.00;;
55300;SDS011;58302;51.446;-2.000;2023-11-19T15:42:34;15.43;;;2.30;;
55300;SDS011;58302;51.446;-2.000;2023-11-19T15:45:00;7.93;;;3.17;;
55300;SDS011;58302;51.446;-2.000;2023-11-19T15:47:30;8.95;;;2.45;;
55300;SDS011;58302;51.446;-2.000;2023-11-19T15:49:56;10.90;;;2.53;;
55300;SDS011;58302;51.446;-2.000;2023-11-19T15:52:22;7.60;;;2.55;;
55300;SDS011;58302;51.446;-2.000;2023-11-19T15:54:48;9.65;;;2.45;;
55300;SDS011;58302;51.446;-2.000;2023-11-19T15:57:14;12.40;;;3.45;;
55300;SDS011;58302;51.446;-2.000;2023-11-19T15:59:40;7.30;;;3.15;;
55300;SDS011;58302;51.446;-2.000;2023-11-19T16:02:06;6.28;;;2.67;;
55300;SDS011;58302;51.446;-2.000;2023-11-19T16:04:32;7.38;;;2.05;;
55300;SDS011;58302;51.446;-2.000;2023-11-19T16:06:58;8.80;;;2.40;;
55300;SDS011;58302;51.446;-2.000;2023-11-19T16:09:25;11.32;;;2.83;;
55300;SDS011;58302;51.446;-2.000;2023-11-19T16:11:52;5.82;;;1.83;;
55300;SDS011;58302;51.446;-2.000;2023-11-19T16:14:18;9.57;;;2.67;;
55300;SDS011;58302;51.446;-2.000;2023-11-19T16:16:44;11.93;;;3.47;;
55300;SDS011;58302;51.446;-2.000;2023-11-19T16:19:10;7.25;;;2.95;;
55300;SDS011;58302;51.446;-2.000;2023-11-19T16:21:36;15.02;;;3.33;;
55300;SDS011;58302;51.446;-2.000;2023-11-19T16:24:02;12.65;;;3.30;;
55300;SDS011;58302;51.446;-2.000;2023-11-19T16:26:30;12.95;;;4.28;;
55300;SDS011;58302;51.446;-2.000;2023-11-19T16:29:01;21.17;;;5.53;;
55300;SDS011;58302;51.446;-2.000;2023-11-19T16:31:27;12.95;;;4.05;;
55300;SDS011;58302;51.446;-2.000;2023-11-19T16:33:53;17.90;;;4.07;;
55300;SDS011;58302;51.446;-2.000;2023-11-19T16:36:19;12.23;;;3.58;;
55300;SDS011;58302;51.446;-2.000;2023-11-19T16:38:45;9.73;;;3.28;;
55300;SDS011;58302;51.446;-2.000;2023-11-19T16:41:13;21.95;;;4.30;;
55300;SDS011;58302;51.446;-2.000;2023-11-19T16:43:49;17.23;;;7.43;;
55300;SDS011;58302;51.446;-2.000;2023-11-19T16:46:16;11.40;;;3.10;;
55300;SDS011;58302;51.446;-2.000;2023-11-19T16:48:46;7.97;;;2.75;;
55300;SDS011;58302;51.446;-2.000;2023-11-19T16:51:15;9.65;;;2.95;;
55300;SDS011;58302;51.446;-2.000;2023-11-19T16:53:47;20.60;;;4.57;;
55300;SDS011;58302;51.446;-2.000;2023-11-19T16:56:14;17.73;;;4.07;;
55300;SDS011;58302;51.446;-2.000;2023-11-19T16:58:42;7.72;;;3.05;;
55300;SDS011;58302;51.446;-2.000;2023-11-19T17:01:12;14.50;;;3.90;;
55300;SDS011;58302;51.446;-2.000;2023-11-19T17:03:41;13.98;;;4.55;;
55300;SDS011;58302;51.446;-2.000;2023-11-19T17:06:07;17.13;;;5.00;;
55300;SDS011;58302;51.446;-2.000;2023-11-19T17:08:34;13.35;;;3.05;;
55300;SDS011;58302;51.446;-2.000;2023-11-19T17:11:03;14.63;;;3.40;;
55300;SDS011;58302;51.446;-2.000;2023-11-19T17:13:33;10.70;;;3.40;;
55300;SDS011;58302;51.446;-2.000;2023-11-19T17:16:02;12.25;;;3.60;;
55300;SDS011;58302;51.446;-2.000;2023-11-19T17:18:29;8.23;;;2.75;;
55300;SDS011;58302;51.446;-2.000;2023-11-19T17:20:55;13.35;;;3.60;;